Cruzeiro Do Canal — CSVG — position and weather

sailwx.info

Track history (hours):
 
Tides and Currents Weather Stations Pressure Air Temp Water Temp Dewpoint Dewpoint Depression Visibility Wind Speed Wind Dir Waves Ship Positions

Cruzeiro Do Canal

Last reported at 2015-Mar-05 13:32 UTC. Time now 2015-Mar-06 02:43 UTC.
Position N 38°32' W 028°36'.

Length 32 m.

Type: Passenger vessel. MMSI: 204701250.

Date/timePositionNaut miles runAvg speedWind from/ knotsBaromVisibWave heightAir tempDewpointWater temp
2015-Mar-05 13:32N 38°32' W 028°36'8 7.7
2015-Mar-05 12:33N 38°35' W 028°27'1211.7
2015-Mar-05 11:33N 38°40' W 028°13'7 7.3
2015-Mar-05 10:33N 38°37' W 028°22'9 9.4
2015-Mar-05 09:33N 38°32' W 028°32'  
2015-Feb-27 13:05N 38°32' W 028°37'4 7.8
2015-Feb-27 12:34N 38°33' W 028°32'1010.3
2015-Feb-27 11:34N 38°32' W 028°19'1010.4
2015-Feb-27 10:33N 38°41' W 028°12'9 9.3
2015-Feb-27 09:33N 38°33' W 028°18'8 8.4
2015-Feb-27 08:33N 38°34' W 028°29'7 6.7
2015-Feb-27 07:33N 38°32' W 028°37'  
Track history (hours):
 
Tides and Currents Weather Stations Pressure Air Temp Water Temp Dewpoint Dewpoint Depression Visibility Wind Speed Wind Dir Waves Ship Positions

Cruzeiro Do Canal

Last reported at 2015-Mar-05 13:32 UTC. Time now 2015-Mar-06 02:43 UTC.
Position N 38°32' W 028°36'.

Length 32 m.

Type: Passenger vessel. MMSI: 204701250.

Date/timePositionNaut miles runAvg speedWind from/ knotsBaromVisibWave heightAir tempDewpointWater temp
2015-Mar-05 13:32N 38°32' W 028°36'8 7.7
2015-Mar-05 12:33N 38°35' W 028°27'1211.7
2015-Mar-05 11:33N 38°40' W 028°13'7 7.3
2015-Mar-05 10:33N 38°37' W 028°22'9 9.4
2015-Mar-05 09:33N 38°32' W 028°32'  
2015-Feb-27 13:05N 38°32' W 028°37'4 7.8
2015-Feb-27 12:34N 38°33' W 028°32'1010.3
2015-Feb-27 11:34N 38°32' W 028°19'1010.4
2015-Feb-27 10:33N 38°41' W 028°12'9 9.3
2015-Feb-27 09:33N 38°33' W 028°18'8 8.4
2015-Feb-27 08:33N 38°34' W 028°29'7 6.7
2015-Feb-27 07:33N 38°32' W 028°37'  

Dump ship's entire track history